Time;durP1;ratioP1;P1;durP2;ratioP2;P2;SDS_P1;SDS_P2;PMS_P1;PMS_P2;Temp;Humidity;BMP_temperature;BMP_pressure;BME280_temperature;BME280_humidity;BME280_pressure;Samples;Min_cycle;Max_cycle;Signal;HPM_P1;HPM_P2
2021/08/01 00:01:57;;;;;;;10.10;3.17;;;15.20;76.90;;;;;;5078144;28;20399;-88
2021/08/01 00:04:24;;;;;;;13.93;3.35;;;15.20;76.90;;;;;;5096327;28;20127;-89
2021/08/01 00:06:51;;;;;;;9.48;3.17;;;15.20;77.00;;;;;;5094250;28;20509;-88
2021/08/01 00:09:18;;;;;;;9.55;2.78;;;15.20;77.00;;;;;;5092432;28;20425;-88
2021/08/01 00:11:45;;;;;;;11.10;2.90;;;15.10;77.00;;;;;;5092849;28;20055;-88
2021/08/01 00:14:12;;;;;;;8.57;2.63;;;15.10;77.00;;;;;;5094169;28;20040;-87
2021/08/01 00:16:39;;;;;;;8.88;2.70;;;15.10;77.00;;;;;;5094866;28;20551;-88
2021/08/01 00:19:06;;;;;;;9.73;3.05;;;15.20;77.00;;;;;;5095425;28;20051;-88
2021/08/01 00:21:33;;;;;;;6.28;2.47;;;15.10;77.00;;;;;;5092713;28;20411;-88
2021/08/01 00:24:00;;;;;;;11.57;2.95;;;15.10;77.00;;;;;;5093571;28;20502;-88
2021/08/01 00:26:27;;;;;;;12.07;2.67;;;15.00;77.00;;;;;;5093913;28;20116;-86
2021/08/01 00:28:54;;;;;;;13.35;2.80;;;15.00;77.10;;;;;;5093976;28;20109;-88
2021/08/01 00:31:21;;;;;;;10.10;3.00;;;15.00;77.20;;;;;;5095900;28;20044;-88
2021/08/01 00:33:48;;;;;;;10.52;2.70;;;14.90;77.20;;;;;;5093774;28;20093;-87
2021/08/01 00:36:15;;;;;;;9.73;3.15;;;14.90;77.30;;;;;;5093421;28;20463;-87
2021/08/01 00:38:42;;;;;;;8.05;2.80;;;14.90;77.40;;;;;;5093310;28;20048;-87
2021/08/01 00:41:09;;;;;;;8.57;3.22;;;14.90;77.50;;;;;;5093453;28;20044;-86
2021/08/01 00:43:36;;;;;;;10.27;2.90;;;14.90;77.60;;;;;;5093709;28;20555;-85
2021/08/01 00:46:04;;;;;;;8.02;2.63;;;14.90;77.50;;;;;;5092376;28;20097;-86
2021/08/01 00:48:33;;;;;;;6.75;2.55;;;14.90;77.50;;;;;;5092049;28;20498;-86
2021/08/01 00:51:01;;;;;;;9.00;2.83;;;14.90;77.50;;;;;;5092127;28;20094;-87
2021/08/01 00:53:27;;;;;;;11.15;2.85;;;14.90;77.50;;;;;;5092986;28;20518;-87
2021/08/01 00:55:54;;;;;;;12.70;2.95;;;14.90;77.50;;;;;;5093313;28;20098;-85
2021/08/01 00:58:21;;;;;;;10.00;3.30;;;14.80;77.50;;;;;;5095497;28;20082;-87
2021/08/01 01:03:49;;;;;;;11.40;3.55;;;14.80;77.70;;;;;;5092999;28;20040;-88
2021/08/01 01:07:00;;;;;;;7.95;2.95;;;14.80;77.80;;;;;;5092502;28;20417;-87
2021/08/01 01:09:36;;;;;;;9.43;2.88;;;14.80;77.90;;;;;;5027417;28;20045;-87
2021/08/01 01:12:06;;;;;;;9.32;3.05;;;14.70;78.10;;;;;;5027637;28;20478;-86
2021/08/01 01:14:38;;;;;;;10.07;3.10;;;14.70;78.10;;;;;;5027774;28;20081;-86
2021/08/01 01:17:06;;;;;;;10.45;3.00;;;14.70;78.20;;;;;;5031631;28;20068;-87
2021/08/01 01:19:52;;;;;;;9.20;2.95;;;14.60;78.30;;;;;;5029018;28;20511;-86
2021/08/01 01:22:34;;;;;;;10.80;3.40;;;14.60;78.40;;;;;;5031271;28;20057;-84
2021/08/01 01:25:11;;;;;;;20.70;3.92;;;14.60;78.60;;;;;;5032391;28;20050;-86
2021/08/01 01:27:44;;;;;;;11.32;3.28;;;14.60;78.70;;;;;;5015420;28;20049;-86
2021/08/01 01:30:11;;;;;;;16.33;3.33;;;14.60;78.80;;;;;;5031656;28;20490;-88
2021/08/01 01:32:47;;;;;;;15.27;3.17;;;14.60;78.80;;;;;;5027494;28;20050;-87
2021/08/01 01:35:18;;;;;;;10.40;3.10;;;14.60;78.90;;;;;;5029767;28;20045;-84
2021/08/01 01:37:50;;;;;;;14.52;3.28;;;14.60;79.10;;;;;;5029824;28;20108;-85
2021/08/01 01:40:21;;;;;;;10.60;3.13;;;14.60;79.20;;;;;;5032392;28;20046;-88
2021/08/01 01:42:52;;;;;;;12.32;3.75;;;14.60;79.40;;;;;;5031560;28;20046;-85
2021/08/01 01:45:19;;;;;;;13.77;3.20;;;14.50;79.50;;;;;;5040312;28;20098;-86
2021/08/01 01:47:47;;;;;;;10.38;2.92;;;14.50;79.60;;;;;;5082723;28;20566;-86
2021/08/01 01:50:18;;;;;;;13.88;2.90;;;14.50;79.70;;;;;;5091949;28;20469;-86
2021/08/01 01:52:49;;;;;;;14.57;3.35;;;14.50;79.70;;;;;;5090944;28;20044;-85
2021/08/01 01:55:20;;;;;;;14.23;3.63;;;14.50;79.90;;;;;;5094301;28;20085;-86
2021/08/01 01:57:48;;;;;;;12.55;3.33;;;14.50;79.90;;;;;;5092241;28;20097;-86
2021/08/01 02:00:15;;;;;;;11.80;3.03;;;14.50;80.00;;;;;;5092098;28;20056;-86
2021/08/01 02:02:42;;;;;;;12.38;3.53;;;14.50;80.00;;;;;;5092129;28;20047;-85
2021/08/01 02:05:10;;;;;;;15.25;3.53;;;14.50;80.00;;;;;;5090225;28;20045;-86
2021/08/01 02:07:38;;;;;;;9.38;3.30;;;14.50;80.10;;;;;;5093296;28;20452;-85
2021/08/01 02:10:46;;;;;;;12.45;3.83;;;14.50;80.10;;;;;;5093359;28;20048;-86
2021/08/01 02:13:16;;;;;;;12.18;3.25;;;14.50;80.20;;;;;;5091994;28;20105;-86
2021/08/01 02:15:50;;;;;;;14.35;3.28;;;14.50;80.30;;;;;;5091757;28;20048;-86
2021/08/01 02:18:36;;;;;;;17.13;3.50;;;14.60;80.40;;;;;;5091265;28;20093;-86
2021/08/01 02:21:03;;;;;;;16.52;4.20;;;14.50;80.50;;;;;;5091206;28;20048;-86
2021/08/01 02:23:35;;;;;;;15.93;3.83;;;14.50;80.60;;;;;;5091609;28;20040;-86
2021/08/01 02:26:03;;;;;;;14.45;3.45;;;14.50;80.70;;;;;;5075956;28;20060;-86
2021/08/01 02:28:32;;;;;;;10.38;3.35;;;14.50;80.70;;;;;;5094014;28;20094;-86
2021/08/01 02:31:01;;;;;;;10.27;3.33;;;14.50;80.80;;;;;;5089479;28;20055;-86
2021/08/01 02:33:28;;;;;;;14.60;3.50;;;14.60;80.80;;;;;;5091001;28;20044;-86
2021/08/01 02:36:01;;;;;;;12.05;3.10;;;14.60;80.80;;;;;;5091281;28;20403;-85
2021/08/01 02:38:29;;;;;;;11.55;3.53;;;14.60;80.80;;;;;;5091507;28;20044;-86
2021/08/01 02:41:01;;;;;;;14.98;3.55;;;14.60;80.80;;;;;;5091253;28;20105;-86
2021/08/01 02:43:31;;;;;;;15.73;3.40;;;14.60;80.80;;;;;;5089087;28;20044;-85
2021/08/01 02:45:58;;;;;;;20.67;4.00;;;14.60;80.80;;;;;;5092102;28;20098;-87
2021/08/01 02:48:28;;;;;;;16.25;3.58;;;14.70;80.80;;;;;;5090725;28;20477;-84
2021/08/01 02:51:02;;;;;;;19.67;4.90;;;14.70;80.80;;;;;;5091025;28;20055;-87
2021/08/01 02:53:33;;;;;;;14.20;3.80;;;14.70;80.90;;;;;;5090968;28;20070;-85
2021/08/01 02:56:04;;;;;;;12.85;3.95;;;14.70;80.90;;;;;;5075279;28;20074;-86
2021/08/01 02:58:33;;;;;;;13.80;3.50;;;14.70;80.90;;;;;;5089402;28;20119;-86
2021/08/01 03:01:01;;;;;;;20.25;4.28;;;14.70;81.00;;;;;;5090456;28;20058;-87
2021/08/01 03:03:29;;;;;;;13.00;3.65;;;14.80;81.00;;;;;;5090498;28;20044;-86
2021/08/01 03:05:56;;;;;;;14.15;3.47;;;14.80;81.00;;;;;;5090792;28;20086;-86
2021/08/01 03:08:23;;;;;;;17.38;3.85;;;14.80;81.00;;;;;;5090806;28;20040;-88
2021/08/01 03:10:50;;;;;;;10.60;3.40;;;14.80;81.00;;;;;;5090973;28;20110;-87
2021/08/01 03:13:17;;;;;;;14.02;3.95;;;14.80;81.10;;;;;;5092847;28;20101;-88
2021/08/01 03:15:44;;;;;;;10.93;3.63;;;14.80;81.10;;;;;;5090725;28;20081;-87
2021/08/01 03:18:11;;;;;;;18.50;4.13;;;14.80;81.10;;;;;;5090081;28;20044;-88
2021/08/01 03:20:38;;;;;;;15.15;3.67;;;14.90;81.20;;;;;;5090551;28;20048;-88
2021/08/01 03:23:05;;;;;;;15.05;3.42;;;14.80;81.20;;;;;;5089237;28;20056;-88
2021/08/01 03:25:34;;;;;;;10.48;3.40;;;14.90;81.20;;;;;;5092061;28;20566;-87
2021/08/01 03:28:02;;;;;;;17.60;3.63;;;14.90;81.30;;;;;;5090310;28;20452;-87
2021/08/01 03:30:29;;;;;;;16.27;3.08;;;14.90;81.30;;;;;;5089765;28;20044;-88
2021/08/01 03:32:56;;;;;;;18.75;4.07;;;14.90;81.30;;;;;;5090073;28;20114;-87
2021/08/01 03:35:23;;;;;;;13.65;3.60;;;14.90;81.30;;;;;;5090538;28;20044;-88
2021/08/01 03:37:51;;;;;;;12.57;3.40;;;14.90;81.40;;;;;;5089300;28;20060;-86
2021/08/01 03:40:17;;;;;;;18.23;4.93;;;14.90;81.40;;;;;;5092603;28;20044;-88
2021/08/01 03:42:45;;;;;;;18.52;4.07;;;14.90;81.50;;;;;;5090150;28;20097;-87
2021/08/01 03:45:12;;;;;;;16.58;3.72;;;14.90;81.50;;;;;;5090155;28;20051;-88
2021/08/01 03:47:39;;;;;;;13.07;3.55;;;14.90;81.50;;;;;;5089961;28;20078;-88
2021/08/01 03:50:07;;;;;;;26.00;4.00;;;14.90;81.60;;;;;;5090251;28;20048;-87
2021/08/01 03:52:34;;;;;;;20.95;4.43;;;14.90;81.60;;;;;;5091598;28;20105;-87
2021/08/01 03:55:03;;;;;;;15.45;3.75;;;14.90;81.60;;;;;;5090974;28;20089;-85
2021/08/01 03:57:29;;;;;;;16.73;4.20;;;14.90;81.60;;;;;;5090288;28;20105;-87
2021/08/01 03:59:56;;;;;;;14.18;3.35;;;14.90;81.70;;;;;;5090147;28;20452;-87
2021/08/01 04:02:23;;;;;;;19.13;4.10;;;14.90;81.70;;;;;;5088384;28;20052;-86
2021/08/01 04:04:50;;;;;;;15.00;3.33;;;14.90;81.70;;;;;;5090263;28;20048;-87
2021/08/01 04:07:17;;;;;;;16.15;4.10;;;14.90;81.70;;;;;;5092186;28;20059;-88
2021/08/01 04:09:44;;;;;;;12.73;3.58;;;14.90;81.70;;;;;;5090000;28;20098;-86
2021/08/01 04:12:11;;;;;;;14.65;3.50;;;14.90;81.70;;;;;;5089767;28;20509;-88
2021/08/01 04:14:37;;;;;;;17.17;3.97;;;14.90;81.70;;;;;;5090070;28;20519;-86
2021/08/01 04:17:07;;;;;;;15.65;3.85;;;14.90;81.70;;;;;;5089637;28;20462;-87
2021/08/01 04:19:33;;;;;;;14.82;3.50;;;14.90;81.70;;;;;;5091413;28;20048;-86
2021/08/01 04:22:00;;;;;;;17.77;4.20;;;14.90;81.60;;;;;;5090700;28;20403;-88
2021/08/01 04:24:27;;;;;;;17.48;3.85;;;14.90;81.60;;;;;;5089941;28;20040;-87
2021/08/01 04:26:55;;;;;;;14.02;3.90;;;14.90;81.60;;;;;;5089810;28;20044;-87
2021/08/01 04:29:22;;;;;;;21.20;3.85;;;14.90;81.60;;;;;;5089759;28;20097;-86
2021/08/01 04:31:49;;;;;;;8.15;3.17;;;14.90;81.60;;;;;;5089939;28;20048;-88
2021/08/01 04:34:16;;;;;;;16.35;3.28;;;14.90;81.60;;;;;;5092332;28;20044;-88
2021/08/01 04:36:43;;;;;;;12.70;3.60;;;14.90;81.60;;;;;;5089612;28;20402;-87
2021/08/01 04:39:10;;;;;;;13.88;3.63;;;14.90;81.50;;;;;;5089843;28;20089;-87
2021/08/01 04:41:37;;;;;;;12.82;3.70;;;14.90;81.50;;;;;;5088915;28;20044;-86
2021/08/01 04:44:04;;;;;;;15.77;3.95;;;14.90;81.50;;;;;;5093197;28;20457;-88
2021/08/01 04:46:31;;;;;;;9.48;3.35;;;14.80;81.50;;;;;;5095446;28;20056;-86
2021/08/01 04:48:58;;;;;;;15.43;4.07;;;14.80;81.50;;;;;;5092524;28;20044;-87
2021/08/01 04:51:25;;;;;;;15.88;3.55;;;14.80;81.50;;;;;;5093361;28;20048;-88
2021/08/01 04:53:52;;;;;;;19.55;3.72;;;14.70;81.50;;;;;;5093379;28;20098;-87
2021/08/01 04:56:19;;;;;;;14.02;4.03;;;14.80;81.50;;;;;;5093334;28;20081;-87
2021/08/01 04:58:46;;;;;;;16.33;3.65;;;14.80;81.60;;;;;;5093119;28;20105;-87
2021/08/01 05:01:14;;;;;;;12.95;3.40;;;14.70;81.60;;;;;;5095376;28;20494;-88
2021/08/01 05:03:41;;;;;;;9.65;3.05;;;14.80;81.60;;;;;;5093362;28;20040;-86
2021/08/01 05:06:11;;;;;;;15.75;3.38;;;14.80;81.60;;;;;;5092161;28;20113;-87
2021/08/01 05:08:39;;;;;;;11.02;4.07;;;14.70;81.60;;;;;;5121443;27;20051;-87
2021/08/01 05:11:06;;;;;;;14.13;4.00;;;14.80;81.70;;;;;;5093209;28;20052;-88
2021/08/01 05:13:33;;;;;;;15.23;3.90;;;14.80;81.80;;;;;;5094142;28;20044;-85
2021/08/01 05:16:01;;;;;;;16.83;3.55;;;14.80;81.90;;;;;;5093853;28;20047;-87
2021/08/01 05:18:28;;;;;;;16.48;3.95;;;14.80;81.90;;;;;;5092813;28;20463;-86
2021/08/01 05:20:54;;;;;;;14.07;3.40;;;14.80;82.00;;;;;;5091424;28;20101;-86
2021/08/01 05:23:21;;;;;;;22.42;3.85;;;14.80;82.10;;;;;;5092935;28;20452;-87
2021/08/01 05:25:48;;;;;;;11.88;3.47;;;14.80;82.10;;;;;;5092927;28;20105;-88
2021/08/01 05:28:15;;;;;;;14.77;3.75;;;14.90;82.20;;;;;;5094970;28;20467;-88
2021/08/01 05:30:42;;;;;;;16.75;4.00;;;14.90;82.20;;;;;;5121033;27;20044;-86
2021/08/01 05:33:10;;;;;;;15.65;3.35;;;14.90;82.20;;;;;;5092522;28;20052;-87
2021/08/01 05:35:39;;;;;;;11.60;3.72;;;14.90;82.30;;;;;;5092650;28;20044;-85
2021/08/01 05:38:07;;;;;;;19.50;3.55;;;14.90;82.30;;;;;;5092610;28;20056;-87
2021/08/01 05:40:35;;;;;;;15.35;3.70;;;14.90;82.30;;;;;;5092947;28;20082;-86
2021/08/01 05:43:02;;;;;;;14.52;3.75;;;14.90;82.30;;;;;;5092736;28;20052;-87
2021/08/01 05:45:30;;;;;;;13.35;3.38;;;14.90;82.30;;;;;;5092483;28;20081;-87
2021/08/01 05:47:56;;;;;;;13.88;3.20;;;15.00;82.40;;;;;;5092395;28;20043;-87
2021/08/01 05:50:23;;;;;;;13.85;3.22;;;15.00;82.40;;;;;;5092576;28;20448;-86
2021/08/01 05:52:50;;;;;;;14.35;3.88;;;15.00;82.40;;;;;;5092125;28;20061;-87
2021/08/01 05:55:17;;;;;;;15.90;4.00;;;15.00;82.50;;;;;;5093875;28;20490;-87
2021/08/01 05:57:45;;;;;;;15.45;3.63;;;15.10;82.40;;;;;;5091789;28;20047;-86
2021/08/01 06:00:14;;;;;;;20.35;3.92;;;15.10;82.50;;;;;;5090686;28;20153;-88
2021/08/01 06:02:40;;;;;;;12.20;3.67;;;15.10;82.50;;;;;;5092106;28;20093;-87
2021/08/01 06:05:09;;;;;;;17.98;3.47;;;15.10;82.50;;;;;;5092174;28;20078;-88
2021/08/01 06:07:36;;;;;;;15.65;3.92;;;15.10;82.50;;;;;;5093404;28;20063;-88
2021/08/01 06:10:03;;;;;;;13.60;3.40;;;15.20;82.50;;;;;;5090808;28;20623;-86
2021/08/01 06:12:30;;;;;;;14.85;3.70;;;15.20;82.50;;;;;;5090264;28;20044;-85
2021/08/01 06:14:57;;;;;;;15.80;4.03;;;15.20;82.50;;;;;;5091747;28;20044;-87
2021/08/01 06:17:24;;;;;;;18.65;3.60;;;15.20;82.50;;;;;;5091995;28;20043;-88
2021/08/01 06:19:55;;;;;;;16.45;3.83;;;15.30;82.50;;;;;;5090612;28;20106;-87
2021/08/01 06:22:23;;;;;;;14.68;3.83;;;15.30;82.50;;;;;;5092615;28;20044;-87
2021/08/01 06:24:50;;;;;;;15.98;3.47;;;15.30;82.50;;;;;;5091771;28;20097;-88
2021/08/01 06:27:17;;;;;;;20.55;3.20;;;15.30;82.50;;;;;;5091273;28;20052;-87
2021/08/01 06:29:44;;;;;;;12.35;4.10;;;15.40;82.60;;;;;;5091591;28;20131;-88
2021/08/01 06:32:11;;;;;;;23.02;4.53;;;15.40;82.70;;;;;;5091454;28;20052;-86
2021/08/01 06:34:38;;;;;;;13.63;3.80;;;15.50;82.70;;;;;;5092615;28;20061;-86
2021/08/01 06:37:05;;;;;;;13.55;4.25;;;15.50;82.70;;;;;;5092525;28;20464;-87
2021/08/01 06:39:32;;;;;;;16.52;3.83;;;15.50;82.70;;;;;;5089956;28;20101;-88
2021/08/01 06:41:59;;;;;;;14.45;3.67;;;15.60;82.70;;;;;;5090909;28;20047;-90
2021/08/01 06:44:25;;;;;;;17.50;3.53;;;15.60;82.80;;;;;;5091284;28;20044;-89
2021/08/01 06:46:52;;;;;;;14.07;3.67;;;15.60;82.80;;;;;;5091285;28;20510;-87
2021/08/01 06:49:19;;;;;;;12.65;3.80;;;15.70;82.70;;;;;;5093306;28;20401;-86
2021/08/01 06:52:06;;;;;;;17.15;3.83;;;15.80;82.60;;;;;;5092458;28;20075;-87
2021/08/01 06:54:33;;;;;;;11.57;4.05;;;15.80;82.60;;;;;;5090633;28;20052;-87
2021/08/01 06:57:00;;;;;;;20.95;4.80;;;15.90;82.50;;;;;;5091052;28;20198;-88
2021/08/01 06:59:27;;;;;;;16.08;3.58;;;15.90;82.40;;;;;;5089715;28;20040;-88
2021/08/01 07:01:54;;;;;;;21.40;3.88;;;15.90;82.30;;;;;;5090838;28;20125;-88
2021/08/01 07:04:21;;;;;;;21.05;3.70;;;15.90;82.30;;;;;;5093085;28;20060;-87
2021/08/01 07:06:50;;;;;;;14.10;3.67;;;16.00;82.20;;;;;;5089845;28;20547;-87
2021/08/01 07:09:17;;;;;;;11.02;3.72;;;16.10;82.20;;;;;;5090636;28;20539;-87
2021/08/01 07:11:44;;;;;;;11.93;3.38;;;16.10;82.20;;;;;;5084939;28;20094;-87
2021/08/01 07:14:11;;;;;;;14.90;3.92;;;16.20;82.20;;;;;;5089376;28;20052;-87
2021/08/01 07:16:42;;;;;;;10.68;3.50;;;16.30;82.30;;;;;;5090687;28;20048;-88
2021/08/01 07:19:10;;;;;;;16.15;3.88;;;16.40;82.20;;;;;;5092254;28;20093;-87
2021/08/01 07:21:37;;;;;;;21.15;3.85;;;16.40;82.10;;;;;;5090090;28;20044;-88
2021/08/01 07:24:05;;;;;;;14.10;3.72;;;16.40;82.00;;;;;;5088157;28;20052;-87
2021/08/01 07:26:31;;;;;;;17.95;3.95;;;16.50;81.90;;;;;;5090248;28;20048;-88
2021/08/01 07:28:58;;;;;;;17.90;4.28;;;16.60;81.80;;;;;;5090325;28;20070;-88
2021/08/01 07:31:25;;;;;;;16.80;3.50;;;16.70;81.70;;;;;;5091808;28;20048;-89
2021/08/01 07:33:52;;;;;;;11.88;2.95;;;16.70;81.30;;;;;;5089772;28;20079;-88
2021/08/01 07:36:19;;;;;;;13.93;3.35;;;16.70;81.20;;;;;;5089786;28;20480;-89
2021/08/01 07:38:46;;;;;;;22.52;4.07;;;16.80;81.10;;;;;;5088080;28;20097;-86
2021/08/01 07:41:13;;;;;;;18.08;3.55;;;16.80;80.90;;;;;;5090185;28;20048;-90
2021/08/01 07:43:39;;;;;;;16.77;4.20;;;16.90;80.80;;;;;;5091044;28;20100;-90
2021/08/01 07:46:06;;;;;;;16.60;3.03;;;16.90;80.80;;;;;;5090826;28;20096;-90
2021/08/01 07:48:34;;;;;;;20.83;4.13;;;16.90;80.70;;;;;;5090280;28;20505;-90
2021/08/01 07:51:02;;;;;;;15.27;3.33;;;17.00;80.60;;;;;;5090231;28;20123;-87
2021/08/01 07:53:29;;;;;;;14.75;3.40;;;17.00;80.50;;;;;;5089985;28;20452;-86
2021/08/01 07:55:56;;;;;;;20.05;3.47;;;17.00;80.40;;;;;;5089829;28;20049;-89
2021/08/01 07:58:23;;;;;;;15.45;3.13;;;17.10;80.30;;;;;;5091855;28;20097;-89
2021/08/01 08:00:50;;;;;;;14.75;3.22;;;17.10;80.10;;;;;;5090036;28;20098;-86
2021/08/01 08:03:17;;;;;;;14.63;3.72;;;17.20;80.10;;;;;;5090019;28;20044;-87
2021/08/01 08:05:44;;;;;;;13.88;3.42;;;17.20;79.90;;;;;;5090108;28;20161;-85
2021/08/01 08:08:11;;;;;;;14.60;3.40;;;17.30;79.90;;;;;;5090023;28;20044;-89
2021/08/01 08:10:38;;;;;;;12.15;3.28;;;17.40;79.90;;;;;;5091379;28;20039;-89
2021/08/01 08:13:05;;;;;;;17.33;3.20;;;17.40;79.80;;;;;;5091122;28;20048;-88
2021/08/01 08:15:33;;;;;;;15.75;3.40;;;17.40;79.70;;;;;;5088884;28;20052;-88
2021/08/01 08:18:00;;;;;;;12.68;3.42;;;17.50;79.60;;;;;;5093230;28;20101;-89
2021/08/01 08:20:27;;;;;;;7.85;2.63;;;17.50;79.10;;;;;;5094378;28;20471;-89
2021/08/01 08:22:54;;;;;;;16.00;3.15;;;17.60;78.90;;;;;;5093669;28;20048;-86
2021/08/01 08:25:20;;;;;;;11.35;3.10;;;17.60;78.70;;;;;;5096022;28;20152;-88
2021/08/01 08:27:47;;;;;;;10.13;3.15;;;17.60;78.70;;;;;;5094052;28;20101;-86
2021/08/01 08:30:14;;;;;;;11.18;3.38;;;17.80;78.60;;;;;;5092554;28;20579;-86
2021/08/01 08:32:41;;;;;;;9.73;2.75;;;17.90;78.40;;;;;;5093794;28;20052;-87
2021/08/01 08:35:09;;;;;;;8.18;2.67;;;17.90;78.20;;;;;;5092360;28;20090;-86
2021/08/01 08:37:44;;;;;;;7.80;2.72;;;17.90;77.40;;;;;;5094589;28;20105;-87
2021/08/01 08:40:13;;;;;;;10.23;2.67;;;18.00;77.30;;;;;;5093620;28;20048;-84
2021/08/01 08:42:45;;;;;;;7.82;2.33;;;18.00;77.40;;;;;;5093445;28;20048;-87
2021/08/01 08:45:16;;;;;;;10.90;3.28;;;18.10;77.40;;;;;;5093563;28;20043;-85
2021/08/01 08:47:48;;;;;;;12.15;2.90;;;18.10;77.20;;;;;;5093446;28;20469;-85
2021/08/01 08:50:18;;;;;;;10.65;2.53;;;18.20;77.10;;;;;;5093443;28;20044;-89
2021/08/01 08:52:45;;;;;;;11.55;3.22;;;18.20;77.30;;;;;;5092393;28;20040;-87
2021/08/01 08:55:14;;;;;;;9.68;2.83;;;18.30;77.50;;;;;;5093496;28;20074;-85
2021/08/01 08:57:50;;;;;;;13.63;3.45;;;18.40;77.50;;;;;;5093281;28;20424;-87
2021/08/01 09:00:19;;;;;;;10.30;2.75;;;18.60;77.80;;;;;;5093322;28;20052;-88
2021/08/01 09:02:46;;;;;;;9.18;2.50;;;18.80;76.10;;;;;;5093165;28;20044;-89
2021/08/01 09:05:13;;;;;;;15.60;2.80;;;18.80;75.60;;;;;;5093348;28;20111;-91
2021/08/01 09:07:40;;;;;;;7.00;2.40;;;18.90;75.00;;;;;;5094290;28;20398;-89
2021/08/01 09:10:08;;;;;;;10.00;2.67;;;19.00;75.10;;;;;;5093634;28;20456;-89
2021/08/01 09:12:44;;;;;;;5.93;2.13;;;19.00;75.10;;;;;;5092177;28;20055;-92
2021/08/01 09:15:12;;;;;;;8.27;2.70;;;19.10;73.90;;;;;;5088286;28;20047;-90
2021/08/01 09:17:40;;;;;;;9.48;2.53;;;19.10;73.80;;;;;;5093695;28;20596;-90
2021/08/01 09:20:27;;;;;;;10.15;2.40;;;19.20;74.10;;;;;;5090801;28;20047;-86
2021/08/01 09:23:09;;;;;;;10.85;2.40;;;19.30;74.30;;;;;;5106894;28;20101;-91
2021/08/01 09:25:41;;;;;;;7.07;2.10;;;19.40;74.00;;;;;;5091497;28;20056;-89
2021/08/01 09:28:16;;;;;;;6.43;2.23;;;19.50;74.00;;;;;;5093092;28;20052;-88
2021/08/01 09:31:02;;;;;;;9.75;2.25;;;19.60;73.30;;;;;;5092485;28;20537;-89
2021/08/01 09:33:36;;;;;;;8.77;2.25;;;19.70;72.30;;;;;;5096206;28;20501;-85
2021/08/01 09:36:15;;;;;;;7.82;2.22;;;19.90;72.10;;;;;;5097662;28;20537;-86
2021/08/01 09:38:47;;;;;;;9.43;1.95;;;19.90;72.00;;;;;;5092226;28;20105;-87
2021/08/01 09:41:17;;;;;;;11.15;2.17;;;20.00;71.90;;;;;;5092419;28;20116;-88
2021/08/01 09:43:55;;;;;;;6.30;1.80;;;20.00;71.20;;;;;;5092147;28;20101;-88
2021/08/01 09:46:40;;;;;;;9.52;1.95;;;20.10;71.30;;;;;;5093445;28;20098;-87
2021/08/01 09:49:18;;;;;;;7.13;2.13;;;20.10;71.10;;;;;;5093208;28;20052;-86
2021/08/01 09:51:57;;;;;;;10.13;2.58;;;20.20;70.90;;;;;;5090454;28;20058;-88
2021/08/01 09:54:26;;;;;;;12.95;2.25;;;20.30;70.50;;;;;;5090328;28;20468;-87
2021/08/01 09:57:01;;;;;;;12.35;2.10;;;20.40;70.40;;;;;;5091499;28;20055;-88
2021/08/01 09:59:30;;;;;;;9.30;2.35;;;20.50;70.30;;;;;;5092084;28;20047;-89
2021/08/01 10:02:02;;;;;;;12.27;2.22;;;20.60;70.10;;;;;;5091683;28;20048;-89
2021/08/01 10:04:31;;;;;;;8.27;2.00;;;20.70;69.60;;;;;;5089149;28;20051;-90
2021/08/01 10:07:06;;;;;;;7.38;2.10;;;20.80;69.50;;;;;;5092159;28;20048;-87
2021/08/01 10:09:34;;;;;;;6.85;1.88;;;20.90;68.50;;;;;;5091650;28;20506;-87
2021/08/01 10:12:02;;;;;;;8.15;2.10;;;20.90;68.20;;;;;;5099053;28;20514;-88
2021/08/01 10:14:30;;;;;;;7.50;2.10;;;20.90;68.10;;;;;;5091617;28;20452;-89
2021/08/01 10:16:58;;;;;;;7.78;2.35;;;21.00;68.50;;;;;;5091524;28;20040;-88
2021/08/01 10:19:25;;;;;;;6.68;2.20;;;21.10;68.90;;;;;;5092969;28;20048;-87
2021/08/01 10:21:57;;;;;;;9.45;1.90;;;21.10;69.10;;;;;;5091517;28;20048;-85
2021/08/01 10:24:26;;;;;;;14.25;2.75;;;21.20;68.10;;;;;;5091697;28;20048;-87
2021/08/01 10:26:56;;;;;;;8.85;2.15;;;21.30;68.30;;;;;;5091069;28;20097;-90
2021/08/01 10:29:45;;;;;;;7.95;1.77;;;21.40;68.40;;;;;;5091969;28;20044;-90
2021/08/01 10:32:14;;;;;;;7.32;1.92;;;21.40;68.60;;;;;;5076200;28;20109;-90
2021/08/01 10:34:50;;;;;;;8.23;1.80;;;21.60;68.00;;;;;;5091821;28;20048;-90
2021/08/01 10:37:45;;;;;;;8.77;2.25;;;21.70;67.40;;;;;;5091680;28;20545;-89
2021/08/01 10:40:23;;;;;;;6.40;1.85;;;21.80;67.30;;;;;;5091238;28;20044;-88
2021/08/01 10:42:54;;;;;;;7.43;2.10;;;21.80;67.10;;;;;;5090578;28;20048;-88
2021/08/01 10:45:20;;;;;;;13.20;1.95;;;21.90;66.90;;;;;;5091283;28;20052;-90
2021/08/01 10:47:51;;;;;;;5.00;1.55;;;22.00;67.10;;;;;;5090455;28;20093;-88
2021/08/01 10:50:23;;;;;;;7.72;1.83;;;22.20;67.00;;;;;;5090771;28;20067;-88
2021/08/01 10:53:19;;;;;;;5.32;1.50;;;22.30;66.90;;;;;;5090979;28;20101;-89
2021/08/01 10:55:49;;;;;;;6.43;1.75;;;22.40;65.00;;;;;;5089089;28;20043;-86
2021/08/01 10:58:17;;;;;;;6.75;2.03;;;22.50;65.10;;;;;;5092517;28;20130;-88
2021/08/01 11:01:06;;;;;;;6.75;1.63;;;22.50;65.10;;;;;;5090375;28;20409;-87
2021/08/01 11:03:39;;;;;;;8.25;2.03;;;22.50;64.10;;;;;;5090187;28;20105;-87
2021/08/01 11:06:34;;;;;;;7.53;1.77;;;22.50;64.30;;;;;;5090684;28;20048;-88
2021/08/01 11:09:12;;;;;;;8.20;1.92;;;22.40;64.20;;;;;;5090558;28;20123;-88
2021/08/01 11:11:44;;;;;;;11.23;2.08;;;22.40;64.30;;;;;;5098296;28;20078;-87
2021/08/01 11:14:47;;;;;;;9.07;1.90;;;22.50;64.70;;;;;;5089465;28;20078;-87
2021/08/01 11:17:17;;;;;;;11.32;1.67;;;22.70;64.30;;;;;;5073299;28;20139;-88
2021/08/01 11:19:44;;;;;;;4.53;1.45;;;22.80;64.20;;;;;;5090348;28;20613;-88
2021/08/01 11:22:39;;;;;;;6.88;1.77;;;22.80;64.20;;;;;;5092264;28;20093;-88
2021/08/01 11:25:26;;;;;;;5.53;1.70;;;22.90;64.40;;;;;;5090535;28;20044;-86
2021/08/01 11:28:15;;;;;;;7.95;1.83;;;23.00;64.10;;;;;;5089979;28;20051;-85
2021/08/01 11:30:53;;;;;;;6.60;1.67;;;23.10;63.60;;;;;;5089759;28;20509;-88
2021/08/01 11:33:41;;;;;;;7.20;1.73;;;23.00;64.40;;;;;;5086504;28;20082;-86
2021/08/01 11:36:11;;;;;;;6.00;1.75;;;22.80;65.10;;;;;;5089649;28;20517;-88
2021/08/01 11:38:59;;;;;;;5.65;1.75;;;22.60;65.70;;;;;;5089182;28;20056;-87
2021/08/01 11:41:40;;;;;;;5.15;1.55;;;22.40;66.20;;;;;;5089914;28;20051;-91
2021/08/01 11:44:25;;;;;;;6.15;1.50;;;22.10;66.80;;;;;;5075182;28;20044;-89
2021/08/01 11:47:03;;;;;;;8.68;2.28;;;21.90;67.70;;;;;;5088930;28;20098;-87
2021/08/01 11:49:33;;;;;;;7.72;2.40;;;21.80;68.40;;;;;;5087807;28;20062;-88
2021/08/01 11:52:05;;;;;;;7.95;2.55;;;21.70;69.20;;;;;;5088971;28;20044;-89
2021/08/01 11:54:36;;;;;;;11.55;2.60;;;21.60;70.50;;;;;;5087733;28;20105;-89
2021/08/01 11:57:06;;;;;;;7.57;2.40;;;21.50;71.30;;;;;;5089682;28;20044;-89
2021/08/01 11:59:34;;;;;;;9.02;2.92;;;21.40;71.80;;;;;;5087998;28;20044;-88
2021/08/01 12:02:06;;;;;;;8.50;3.33;;;21.40;72.10;;;;;;5076305;28;20062;-87
2021/08/01 12:04:33;;;;;;;12.90;3.70;;;21.30;72.60;;;;;;5090990;28;20059;-86
2021/08/01 12:07:00;;;;;;;24.00;6.53;;;21.30;73.20;;;;;;5087848;28;20089;-86
2021/08/01 12:09:29;;;;;;;17.73;5.00;;;21.40;73.90;;;;;;5089837;28;20081;-87
2021/08/01 12:12:01;;;;;;;12.98;4.45;;;21.40;74.30;;;;;;5096651;28;20044;-89
2021/08/01 12:14:30;;;;;;;6.63;2.90;;;21.40;74.50;;;;;;5089566;28;20054;-88
2021/08/01 12:17:01;;;;;;;8.95;2.50;;;21.40;74.40;;;;;;5089532;28;20058;-87
2021/08/01 12:19:30;;;;;;;6.97;2.38;;;21.40;74.10;;;;;;5087156;28;20056;-89
2021/08/01 12:22:01;;;;;;;12.82;2.80;;;21.40;73.70;;;;;;5087292;28;20102;-88
2021/08/01 12:24:57;;;;;;;11.88;2.78;;;21.40;73.50;;;;;;5089487;28;20407;-88
2021/08/01 12:27:36;;;;;;;9.18;2.50;;;21.40;73.40;;;;;;5089856;28;20571;-89
2021/08/01 12:30:07;;;;;;;8.85;2.70;;;21.40;73.40;;;;;;5087921;28;20460;-87
2021/08/01 12:32:38;;;;;;;7.88;3.00;;;21.30;73.50;;;;;;5088508;28;20109;-92
2021/08/01 12:35:13;;;;;;;6.72;2.80;;;21.40;73.80;;;;;;5074537;28;20070;-86
2021/08/01 12:37:44;;;;;;;12.05;3.08;;;21.40;74.90;;;;;;5090393;28;20102;-89
2021/08/01 12:40:14;;;;;;;7.57;2.10;;;21.60;74.60;;;;;;5090112;28;20044;-91
2021/08/01 12:42:50;;;;;;;7.18;2.33;;;21.60;73.10;;;;;;5088692;28;20055;-88
2021/08/01 12:45:17;;;;;;;6.38;1.88;;;21.70;71.80;;;;;;5090060;28;20343;-87
2021/08/01 12:47:45;;;;;;;9.55;2.38;;;21.70;71.20;;;;;;5088938;28;20113;-87
2021/08/01 12:50:14;;;;;;;8.40;2.53;;;21.70;70.70;;;;;;5089380;28;20526;-87
2021/08/01 12:52:42;;;;;;;9.15;2.05;;;21.60;70.60;;;;;;5090423;28;20101;-87
2021/08/01 12:55:10;;;;;;;8.45;2.25;;;21.60;70.60;;;;;;5090514;28;20054;-85
2021/08/01 12:58:00;;;;;;;9.18;2.05;;;21.50;70.60;;;;;;5089329;28;20505;-85
2021/08/01 13:00:31;;;;;;;6.03;1.80;;;21.50;70.60;;;;;;5087949;28;20626;-87